Terminal Aerodrome Forecast
Issued by NWS

Current Version | Previous Version | Graphics & Text | Print | Product List | Glossary On
Versions: 1 2 3 4 5 6 7 8 9 10 11 12 13 14 15
000
FTUS41 KPBZ 302339
TAFHLG
TAF
KHLG 302339Z 3100/3124 23004KT P6SM SCT045 BKN100
     FM310900 VRB02KT 4SM BR SCT250
      TEMPO 3111/3113 1 1/2SM BR
     FM311400 23005KT P6SM SCT040 BKN250=

USA.gov is the U.S. government's official web portal to all federal, state and local government web resources and services.